Terminal Aerodrome Forecast
Issued by NWS Missoula, MT

Home | Current Version | Previous Version | Text Only | Print | Product List | Glossary On
Versions: 1 2 3 4 5 6 7 8 9 10 11 12 13 14 15
000
FTUS45 KMSO 251120
TAFGPI
TAF
KGPI 251120Z 2512/2612 VRB03KT P6SM BKN090
     FM252100 14008KT P6SM VCSH BKN060
     FM260400 VRB06KT P6SM BKN100=

USA.gov is the U.S. government's official web portal to all federal, state and local government web resources and services.